Aérodrome :
LOGIN :

S'inscrire | Disclaimer

   EN    FR    IT 

 










Légende :    VFR   VFR Marginal   IFR   IFR Intensif   IFR Très Intensif
Visi : 
Plafond : 
>= 8 km
>= 3000ft
5 à 8 km
1000 à 3000 ft
1500m à 5 km
500 à 1000 ft
800 à 1500m
200 à 500 ft
< 800m
< 200 ft
Symboles :   Orages  Brouillard  Fortes neiges  Fortes précipitations  Vent > 20 kt
SIGMETs :   Divers  Orages  Givrage  Turbulence  Onde Orograph.  Cendres Volcan.







- Altitude de l'aérodrome : 1910 ft
- Code IATA : RDZ
- Voir les cartes d'approche


LFCR - Rodez

DERNIER METAR :
  • 230800Z AUTO 27004KT 230V300 9999 SCT006 BKN010 OVC016 20/18 Q1024 BECMG BKN025

METARs EXPIRÉS :
  • 230730Z AUTO 25006KT 9000 OVC004 19/18 Q1024 BECMG BKN025
  • 230700Z AUTO 25006KT 8000 OVC004 19/18 Q1023 BECMG BKN012
  • 230630Z AUTO 25006KT 6000 OVC004 19/18 Q1023 BECMG BKN012
  • 230600Z AUTO 27004KT 9000 OVC005 19/18 Q1023 TEMPO 3000 BR BECMG BKN012
  • 230530Z AUTO 27004KT 7000 BKN005 OVC009 19/18 Q1023 TEMPO 3000 BR BECMG BKN012

TAF TAF LFCR
Valide du 23 à 06h jusqu'au 24 à 06h UTC


230500Z 2306/2406 27008KT 3000 BR OVC002
BECMG 2307/2309 9999 NSW BKN012
BECMG 2309/2311 BKN025
BECMG 2311/2313 CAVOK
BECMG 2321/2323 BKN030
Pas de NOTAMs connus pour ce terrain.



MET'MAP, la Météo Aéronautique d'un coup d'oeil ! - Copyright ORBIFLY Décembre 2007 - Disclaimer

ORBIFLY MET'MAP TEAM :

Programmation & Développement : Alexandra Zaïnal
Conception & Développement : Baudouin d'Aumeries
Co-Programmation & Développement : Marc-Olivier Méhu
Soutien technique & logistique : Manuel Goepfert

Contact : metmap@orbifly.com




SOURCES & CREDITS :

   NOAA